Time;durP1;ratioP1;P1;durP2;ratioP2;P2;SDS_P1;SDS_P2;PMS_P1;PMS_P2;Temp;Humidity;BMP_temperature;BMP_pressure;BME280_temperature;BME280_humidity;BME280_pressure;Samples;Min_cycle;Max_cycle;Signal;HPM_P1;HPM_P2
2024/01/08 05:30:38;;;;;;;0.10;0.10;;;2.20;75.80;;;;;;5869610;23;20159;-80
2024/01/08 05:33:04;;;;;;;0.10;0.10;;;2.20;76.10;;;;;;4992404;28;20027;-78
2024/01/08 05:35:29;;;;;;;0.10;0.10;;;2.00;76.20;;;;;;4996010;28;20061;-80
2024/01/08 05:37:56;;;;;;;0.10;0.10;;;1.90;76.60;;;;;;4997012;28;20026;-80
2024/01/08 05:40:22;;;;;;;0.17;0.17;;;2.10;76.60;;;;;;4989420;28;20102;-81
2024/01/08 05:42:48;;;;;;;0.20;0.20;;;2.00;76.30;;;;;;4995558;28;20478;-80
2024/01/08 05:45:14;;;;;;;0.15;0.15;;;1.90;76.90;;;;;;4996474;28;20026;-80
2024/01/08 05:47:39;;;;;;;0.10;0.10;;;1.90;77.00;;;;;;4996355;28;20086;-80
2024/01/08 05:50:05;;;;;;;0.15;0.15;;;2.00;76.60;;;;;;4995877;28;20031;-80
2024/01/08 05:52:32;;;;;;;0.20;0.20;;;2.10;76.60;;;;;;4997004;28;20558;-82
2024/01/08 05:54:57;;;;;;;0.10;0.10;;;2.10;76.20;;;;;;4996807;28;20034;-79
2024/01/08 05:57:23;;;;;;;0.20;0.20;;;2.10;76.40;;;;;;4997175;28;20030;-83
2024/01/08 05:59:48;;;;;;;0.20;0.20;;;2.00;76.40;;;;;;4987501;28;20022;-77
2024/01/08 06:02:14;;;;;;;0.10;0.10;;;1.90;76.70;;;;;;4980092;28;20118;-77
2024/01/08 06:04:40;;;;;;;0.20;0.20;;;1.80;76.70;;;;;;4977371;28;20031;-78
2024/01/08 06:07:06;;;;;;;0.20;0.20;;;1.90;76.50;;;;;;4990741;28;20030;-76
2024/01/08 06:09:31;;;;;;;0.10;0.10;;;2.00;76.20;;;;;;4988933;28;20030;-78
2024/01/08 06:12:00;;;;;;;0.20;0.20;;;2.00;76.20;;;;;;4976358;28;20125;-79
2024/01/08 06:14:26;;;;;;;0.15;0.15;;;2.00;75.80;;;;;;4977397;28;20395;-77
2024/01/08 06:16:52;;;;;;;0.10;0.10;;;1.90;75.90;;;;;;4993022;28;20023;-78
2024/01/08 06:19:18;;;;;;;0.10;0.10;;;2.00;75.60;;;;;;4991047;28;20031;-78
2024/01/08 06:21:44;;;;;;;0.10;0.10;;;2.00;75.70;;;;;;4977396;28;20086;-77
2024/01/08 06:24:09;;;;;;;0.10;0.10;;;1.90;75.00;;;;;;4976783;28;20033;-79
2024/01/08 06:26:35;;;;;;;0.20;0.20;;;1.90;75.50;;;;;;4991948;28;20049;-77
2024/01/08 06:29:00;;;;;;;0.10;0.10;;;1.80;75.60;;;;;;4996353;28;20034;-78
2024/01/08 06:31:26;;;;;;;0.10;0.10;;;1.80;75.60;;;;;;4995309;28;20050;-80
2024/01/08 06:33:52;;;;;;;0.17;0.17;;;1.80;75.20;;;;;;4994482;28;20030;-80
2024/01/08 06:36:18;;;;;;;0.20;0.20;;;1.80;75.10;;;;;;4995095;28;20506;-79
2024/01/08 06:38:45;;;;;;;0.20;0.20;;;1.70;75.50;;;;;;4995367;28;20065;-79
2024/01/08 06:41:11;;;;;;;0.20;0.20;;;1.60;75.50;;;;;;4990388;28;20117;-78
2024/01/08 06:43:37;;;;;;;0.20;0.20;;;1.60;75.50;;;;;;4995627;28;20065;-79
2024/01/08 06:46:02;;;;;;;0.20;0.20;;;1.60;75.40;;;;;;4989357;28;20031;-80
2024/01/08 06:48:28;;;;;;;0.10;0.10;;;1.60;75.50;;;;;;4977021;28;20031;-77
2024/01/08 06:50:54;;;;;;;0.17;0.17;;;1.60;75.00;;;;;;4989851;28;20106;-78
2024/01/08 06:53:20;;;;;;;0.20;0.20;;;1.40;75.70;;;;;;4985214;28;20066;-78
2024/01/08 06:55:47;;;;;;;0.20;0.20;;;1.40;75.90;;;;;;4998181;28;20023;-78
2024/01/08 06:58:12;;;;;;;0.20;0.20;;;1.50;75.90;;;;;;4992869;28;20022;-78
2024/01/08 07:00:38;;;;;;;0.20;0.20;;;1.50;75.50;;;;;;5000015;28;20841;-78
2024/01/08 07:03:04;;;;;;;0.10;0.10;;;1.60;75.20;;;;;;4995752;28;20070;-78
2024/01/08 07:05:29;;;;;;;0.10;0.10;;;1.60;75.30;;;;;;4977481;28;21794;-79
2024/01/08 07:07:56;;;;;;;0.10;0.10;;;1.50;75.10;;;;;;4994642;28;20030;-78
2024/01/08 07:10:21;;;;;;;0.10;0.10;;;1.40;75.60;;;;;;4994308;28;20022;-78
2024/01/08 07:12:47;;;;;;;0.10;0.10;;;1.30;74.90;;;;;;4998113;28;20044;-78
2024/01/08 07:15:38;;;;;;;0.10;0.10;;;1.00;75.40;;;;;;4989499;28;20042;-78
2024/01/08 07:18:04;;;;;;;0.10;0.10;;;0.90;75.20;;;;;;4994807;28;20109;-78
2024/01/08 07:20:30;;;;;;;0.10;0.10;;;0.70;75.00;;;;;;4996358;28;20026;-82
2024/01/08 07:22:56;;;;;;;0.20;0.20;;;0.80;75.40;;;;;;4994821;28;20041;-79
2024/01/08 07:25:22;;;;;;;0.20;0.20;;;0.90;75.20;;;;;;4997206;28;20022;-78
2024/01/08 07:27:47;;;;;;;0.10;0.10;;;1.00;75.00;;;;;;4998342;28;20061;-78
2024/01/08 07:30:13;;;;;;;0.10;0.10;;;1.10;74.60;;;;;;4992517;28;20022;-78
2024/01/08 07:32:39;;;;;;;0.17;0.17;;;1.20;74.30;;;;;;4996954;28;20042;-78
2024/01/08 07:35:05;;;;;;;0.10;0.10;;;1.10;74.10;;;;;;4998030;28;20027;-78
2024/01/08 07:37:31;;;;;;;0.10;0.10;;;1.10;74.00;;;;;;4997597;28;20574;-78
2024/01/08 07:39:57;;;;;;;0.20;0.20;;;1.10;74.00;;;;;;4995135;28;20073;-78
2024/01/08 07:42:22;;;;;;;0.10;0.10;;;1.20;73.50;;;;;;4998593;28;20023;-78
2024/01/08 07:44:48;;;;;;;0.20;0.20;;;1.20;73.30;;;;;;4998602;28;20026;-78
2024/01/08 07:47:14;;;;;;;0.10;0.10;;;1.20;73.20;;;;;;4997834;28;20489;-79
2024/01/08 07:49:39;;;;;;;0.10;0.10;;;1.20;72.70;;;;;;4985514;28;20046;-78
2024/01/08 07:52:05;;;;;;;0.20;0.20;;;1.10;72.90;;;;;;4998356;28;20426;-79
2024/01/08 07:54:30;;;;;;;0.10;0.10;;;1.00;72.50;;;;;;4993154;28;20034;-78
2024/01/08 07:56:56;;;;;;;0.15;0.15;;;0.90;72.30;;;;;;4998619;28;20078;-78
2024/01/08 07:59:22;;;;;;;0.20;0.20;;;0.90;72.30;;;;;;4996575;28;20036;-78
2024/01/08 08:01:47;;;;;;;0.20;0.20;;;0.80;72.40;;;;;;4998486;28;20477;-78
2024/01/08 08:04:13;;;;;;;0.20;0.20;;;0.90;72.70;;;;;;4995028;28;20058;-78
2024/01/08 08:06:38;;;;;;;0.20;0.20;;;1.00;72.20;;;;;;4995926;28;20552;-79
2024/01/08 08:09:05;;;;;;;0.20;0.20;;;0.90;72.30;;;;;;4980548;28;20022;-78
2024/01/08 08:11:30;;;;;;;0.10;0.10;;;1.00;72.70;;;;;;4997053;28;20026;-78
2024/01/08 08:13:56;;;;;;;0.20;0.20;;;1.10;72.10;;;;;;4998467;28;20088;-79
2024/01/08 08:16:22;;;;;;;0.20;0.20;;;1.10;72.10;;;;;;4996059;28;20038;-78
2024/01/08 08:18:48;;;;;;;0.10;0.10;;;1.10;71.70;;;;;;4998211;28;20489;-78
2024/01/08 08:21:13;;;;;;;0.20;0.20;;;1.20;71.30;;;;;;4994018;28;20141;-79
2024/01/08 08:23:39;;;;;;;0.15;0.15;;;1.00;70.80;;;;;;4986277;28;20109;-78
2024/01/08 08:26:04;;;;;;;0.20;0.20;;;1.00;71.30;;;;;;4998093;28;20406;-78
2024/01/08 08:28:30;;;;;;;0.17;0.17;;;1.10;71.50;;;;;;4995101;28;20034;-78
2024/01/08 08:30:56;;;;;;;0.10;0.10;;;1.10;71.50;;;;;;4996661;28;20054;-78
2024/01/08 08:33:21;;;;;;;0.20;0.20;;;1.20;71.80;;;;;;4993950;28;20069;-78
2024/01/08 08:35:47;;;;;;;0.20;0.20;;;1.20;71.60;;;;;;4995804;28;20022;-78
2024/01/08 08:38:13;;;;;;;0.20;0.20;;;1.30;71.40;;;;;;4995584;28;20430;-78
2024/01/08 08:40:38;;;;;;;0.20;0.20;;;1.30;71.20;;;;;;4990885;28;20389;-78
2024/01/08 08:43:05;;;;;;;0.10;0.10;;;1.30;71.40;;;;;;4996088;28;20027;-79
2024/01/08 08:45:31;;;;;;;0.10;0.10;;;1.20;71.30;;;;;;4994787;28;20454;-80
2024/01/08 08:47:57;;;;;;;0.20;0.20;;;1.30;71.00;;;;;;4992765;28;20086;-84
2024/01/08 08:50:23;;;;;;;0.20;0.20;;;1.30;71.00;;;;;;4994738;28;20470;-86
2024/01/08 08:52:48;;;;;;;0.10;0.10;;;1.20;70.90;;;;;;4993957;28;20029;-83
2024/01/08 08:55:14;;;;;;;0.20;0.20;;;1.20;71.00;;;;;;4991927;28;20034;-86
2024/01/08 08:57:41;;;;;;;0.10;0.10;;;1.30;70.50;;;;;;4998004;28;20029;-87
2024/01/08 09:00:09;;;;;;;0.20;0.20;;;1.30;70.30;;;;;;4996733;28;20042;-84
2024/01/08 09:02:35;;;;;;;0.20;0.20;;;1.30;70.80;;;;;;4993958;28;20029;-86
2024/01/08 09:05:03;;;;;;;0.20;0.20;;;1.30;70.80;;;;;;5011710;28;20018;-85
2024/01/08 09:07:28;;;;;;;0.20;0.20;;;1.40;70.50;;;;;;4994165;28;20109;-87
2024/01/08 09:09:54;;;;;;;0.20;0.20;;;1.40;70.00;;;;;;4986744;28;20062;-80
2024/01/08 09:12:20;;;;;;;0.20;0.20;;;1.40;70.30;;;;;;4990633;28;20081;-80
2024/01/08 09:14:45;;;;;;;0.20;0.20;;;1.50;70.30;;;;;;4995000;28;20022;-79
2024/01/08 09:17:11;;;;;;;0.10;0.10;;;1.50;69.60;;;;;;4995782;28;20426;-80
2024/01/08 09:19:38;;;;;;;0.20;0.20;;;1.50;69.40;;;;;;4992385;28;20034;-79
2024/01/08 09:22:04;;;;;;;0.40;0.40;;;1.60;69.80;;;;;;4994731;28;20026;-80
2024/01/08 09:24:29;;;;;;;0.60;0.60;;;2.00;68.60;;;;;;4994723;28;20021;-80
2024/01/08 09:26:55;;;;;;;2.00;1.90;;;2.30;68.00;;;;;;4995276;28;20212;-79
2024/01/08 09:29:21;;;;;;;0.30;0.30;;;2.90;66.70;;;;;;4995474;28;20497;-80
2024/01/08 09:31:47;;;;;;;0.20;0.20;;;3.00;65.60;;;;;;4996435;28;20093;-80
2024/01/08 09:34:13;;;;;;;0.17;0.17;;;2.80;65.40;;;;;;4996288;28;20030;-80
2024/01/08 09:36:39;;;;;;;0.20;0.20;;;2.60;66.40;;;;;;4994225;28;20026;-80
2024/01/08 09:39:04;;;;;;;0.10;0.10;;;2.40;66.50;;;;;;4996737;28;20034;-79
2024/01/08 09:41:30;;;;;;;0.20;0.20;;;2.30;67.10;;;;;;4996386;28;20022;-80
2024/01/08 09:44:03;;;;;;;0.10;0.10;;;2.20;67.40;;;;;;4995686;28;20150;-80
2024/01/08 09:46:32;;;;;;;0.20;0.20;;;2.20;68.30;;;;;;4995385;28;20546;-79
2024/01/08 09:49:00;;;;;;;0.10;0.10;;;2.20;68.00;;;;;;4994061;28;20041;-80
2024/01/08 09:51:26;;;;;;;0.10;0.10;;;2.20;67.60;;;;;;4996477;28;20109;-80
2024/01/08 09:53:52;;;;;;;0.20;0.20;;;2.20;67.40;;;;;;4993979;28;20441;-78
2024/01/08 09:56:22;;;;;;;0.10;0.10;;;2.30;67.10;;;;;;4994572;28;20034;-81
2024/01/08 09:58:48;;;;;;;0.20;0.20;;;2.30;66.80;;;;;;4991666;28;20065;-81
2024/01/08 10:01:13;;;;;;;0.20;0.20;;;2.20;66.40;;;;;;4992582;28;20050;-81
2024/01/08 10:03:39;;;;;;;0.20;0.20;;;2.30;66.20;;;;;;4992781;28;20070;-81
2024/01/08 10:06:06;;;;;;;0.20;0.20;;;2.30;65.20;;;;;;4994905;28;20029;-81
2024/01/08 10:08:32;;;;;;;0.20;0.20;;;2.30;65.60;;;;;;4995701;28;20019;-81
2024/01/08 10:10:58;;;;;;;0.20;0.20;;;2.40;65.30;;;;;;4982815;28;20027;-81
2024/01/08 10:13:23;;;;;;;0.20;0.20;;;2.50;65.00;;;;;;4977400;28;20030;-81
2024/01/08 10:15:49;;;;;;;0.10;0.10;;;2.50;64.70;;;;;;4989881;28;20049;-81
2024/01/08 10:18:17;;;;;;;0.10;0.10;;;2.40;64.30;;;;;;4993929;28;20371;-81
2024/01/08 10:20:44;;;;;;;0.20;0.20;;;2.50;64.80;;;;;;4996166;28;20025;-81
2024/01/08 10:23:10;;;;;;;0.20;0.20;;;2.60;64.70;;;;;;4991507;28;20038;-81
2024/01/08 10:25:37;;;;;;;0.10;0.10;;;2.70;64.30;;;;;;4975879;28;20035;-81
2024/01/08 10:28:12;;;;;;;0.15;0.15;;;2.70;63.90;;;;;;4976855;28;20023;-80
2024/01/08 10:30:40;;;;;;;0.10;0.10;;;2.60;62.80;;;;;;4979652;28;20062;-80
2024/01/08 10:33:07;;;;;;;0.10;0.10;;;2.70;63.90;;;;;;4991807;28;20089;-80
2024/01/08 10:35:34;;;;;;;0.10;0.10;;;2.80;63.20;;;;;;4999799;28;20488;-80
2024/01/08 10:38:01;;;;;;;0.10;0.10;;;2.90;63.30;;;;;;5000612;28;20031;-80
2024/01/08 10:40:28;;;;;;;0.20;0.20;;;2.90;62.60;;;;;;4996877;28;20041;-80
2024/01/08 10:42:54;;;;;;;0.20;0.20;;;3.00;62.80;;;;;;4996600;28;20066;-80
2024/01/08 10:45:20;;;;;;;0.20;0.20;;;2.80;61.40;;;;;;4996697;28;20041;-79
2024/01/08 10:48:02;;;;;;;0.20;0.20;;;2.70;60.70;;;;;;4998969;28;20034;-79
2024/01/08 10:50:28;;;;;;;0.20;0.20;;;2.70;60.70;;;;;;4980442;28;20454;-79
2024/01/08 10:52:56;;;;;;;0.10;0.10;;;2.90;61.00;;;;;;4980787;28;20043;-79
2024/01/08 10:55:25;;;;;;;0.17;0.17;;;2.80;60.20;;;;;;4991150;28;20037;-78
2024/01/08 10:58:03;;;;;;;0.10;0.10;;;2.90;59.50;;;;;;4995615;28;20046;-79
2024/01/08 11:00:30;;;;;;;0.10;0.10;;;3.00;58.70;;;;;;4994580;28;20078;-78
2024/01/08 11:02:56;;;;;;;0.20;0.20;;;3.00;58.90;;;;;;4994966;28;20041;-79
2024/01/08 11:05:22;;;;;;;0.10;0.10;;;3.20;60.40;;;;;;4994562;28;20022;-78
2024/01/08 11:07:50;;;;;;;0.20;0.20;;;3.20;60.10;;;;;;4984872;28;20041;-79
2024/01/08 11:10:17;;;;;;;0.15;0.15;;;3.40;59.70;;;;;;4980453;28;20494;-79
2024/01/08 11:12:52;;;;;;;0.10;0.10;;;3.30;58.30;;;;;;4998131;28;20033;-79
2024/01/08 11:15:18;;;;;;;0.10;0.10;;;3.40;59.20;;;;;;4998037;28;20018;-79
2024/01/08 11:17:51;;;;;;;0.17;0.17;;;3.40;58.70;;;;;;4994182;28;20792;-79
2024/01/08 11:20:39;;;;;;;0.20;0.20;;;3.40;58.60;;;;;;4995797;28;20022;-78
2024/01/08 11:23:31;;;;;;;0.17;0.17;;;3.30;59.00;;;;;;4980669;28;20554;-79
2024/01/08 11:25:57;;;;;;;0.10;0.10;;;3.40;57.80;;;;;;4995025;28;20521;-78
2024/01/08 11:28:23;;;;;;;0.10;0.10;;;3.30;58.30;;;;;;4985234;28;20026;-79
2024/01/08 11:31:13;;;;;;;0.10;0.10;;;3.40;58.10;;;;;;4999446;28;20046;-79
2024/01/08 11:33:56;;;;;;;0.10;0.10;;;3.50;58.20;;;;;;4999394;28;20041;-78
2024/01/08 11:36:43;;;;;;;0.10;0.10;;;3.60;57.50;;;;;;4997010;28;20098;-78
2024/01/08 11:39:13;;;;;;;0.20;0.20;;;3.70;57.10;;;;;;4980002;28;20031;-78
2024/01/08 11:41:39;;;;;;;0.10;0.10;;;3.50;56.00;;;;;;4992851;28;20026;-77
2024/01/08 11:44:05;;;;;;;0.10;0.10;;;3.50;56.30;;;;;;4978872;28;20034;-80
2024/01/08 11:46:34;;;;;;;0.20;0.20;;;3.50;56.80;;;;;;4979519;28;20398;-81
2024/01/08 11:49:00;;;;;;;0.10;0.10;;;3.40;56.00;;;;;;4979195;28;20023;-78
2024/01/08 11:51:26;;;;;;;0.13;0.13;;;3.20;56.20;;;;;;4994340;28;20030;-77
2024/01/08 11:53:53;;;;;;;0.10;0.10;;;3.20;56.90;;;;;;5001641;28;20037;-77
2024/01/08 11:56:18;;;;;;;0.10;0.10;;;3.30;56.80;;;;;;5000618;28;20019;-77
2024/01/08 11:58:44;;;;;;;0.10;0.10;;;3.40;56.70;;;;;;4997150;28;20102;-79
2024/01/08 12:01:17;;;;;;;0.20;0.20;;;3.30;56.60;;;;;;4994613;28;20770;-79
2024/01/08 12:03:43;;;;;;;0.17;0.17;;;3.50;57.70;;;;;;4998742;28;20093;-79
2024/01/08 12:06:08;;;;;;;0.20;0.20;;;3.60;57.20;;;;;;4998500;28;20053;-79
2024/01/08 12:08:34;;;;;;;0.20;0.20;;;3.40;56.40;;;;;;4978837;28;20031;-79
2024/01/08 12:11:01;;;;;;;0.10;0.10;;;3.40;56.80;;;;;;4995179;28;20023;-79
2024/01/08 12:13:27;;;;;;;0.10;0.10;;;3.40;57.20;;;;;;4991234;28;20089;-79
2024/01/08 12:15:52;;;;;;;0.10;0.10;;;3.50;57.50;;;;;;4978872;28;20023;-78
2024/01/08 12:18:18;;;;;;;0.20;0.20;;;3.40;57.20;;;;;;4978122;28;20026;-79
2024/01/08 12:20:47;;;;;;;0.15;0.15;;;3.30;56.80;;;;;;4993432;28;20037;-76
2024/01/08 12:23:12;;;;;;;0.20;0.20;;;3.20;57.30;;;;;;4994594;28;20035;-78
2024/01/08 12:25:38;;;;;;;0.10;0.10;;;3.50;57.60;;;;;;4978998;28;20037;-81
2024/01/08 12:28:04;;;;;;;0.20;0.20;;;3.60;57.40;;;;;;4993897;28;20045;-82
2024/01/08 12:30:31;;;;;;;0.20;0.20;;;3.70;57.40;;;;;;4977941;28;20102;-79
2024/01/08 12:32:57;;;;;;;0.20;0.20;;;3.70;57.70;;;;;;4991882;28;20034;-79
2024/01/08 12:35:23;;;;;;;0.13;0.13;;;3.60;56.80;;;;;;4991828;28;20475;-79
2024/01/08 12:37:49;;;;;;;0.20;0.20;;;3.40;57.20;;;;;;4977750;28;20054;-77
2024/01/08 12:40:14;;;;;;;0.10;0.10;;;3.60;58.10;;;;;;4982796;28;20573;-77
2024/01/08 12:42:42;;;;;;;0.10;0.10;;;3.70;58.00;;;;;;4994542;28;20413;-78
2024/01/08 12:45:10;;;;;;;0.10;0.10;;;3.70;58.10;;;;;;4991752;28;20018;-78
2024/01/08 12:47:36;;;;;;;0.10;0.10;;;3.80;58.40;;;;;;4994761;28;20470;-78
2024/01/08 12:50:01;;;;;;;0.20;0.20;;;3.80;57.60;;;;;;4985617;28;20035;-78
2024/01/08 12:52:27;;;;;;;0.10;0.10;;;3.90;57.80;;;;;;4991732;28;20561;-78
2024/01/08 12:54:53;;;;;;;0.15;0.15;;;4.00;57.70;;;;;;4991554;28;20027;-78
2024/01/08 12:57:18;;;;;;;0.10;0.10;;;4.10;57.40;;;;;;4985579;28;20042;-78
2024/01/08 12:59:56;;;;;;;0.10;0.10;;;4.00;57.10;;;;;;4988538;28;20081;-78
2024/01/08 13:02:23;;;;;;;0.10;0.10;;;3.90;57.90;;;;;;4978587;28;20128;-78
2024/01/08 13:04:52;;;;;;;0.10;0.10;;;3.90;57.50;;;;;;4983579;28;20038;-78
2024/01/08 13:07:18;;;;;;;0.10;0.10;;;3.90;58.20;;;;;;4991357;28;20171;-78
2024/01/08 13:09:44;;;;;;;0.10;0.10;;;3.70;57.90;;;;;;4984329;28;20027;-78
2024/01/08 13:12:10;;;;;;;0.13;0.13;;;3.80;57.80;;;;;;4991468;28;20062;-78
2024/01/08 13:14:36;;;;;;;0.10;0.10;;;3.90;57.40;;;;;;4976478;28;20038;-78
2024/01/08 13:17:03;;;;;;;0.20;0.20;;;3.90;58.10;;;;;;4976122;28;20034;-78
2024/01/08 13:19:31;;;;;;;0.10;0.10;;;4.00;58.40;;;;;;4994741;28;20032;-78
2024/01/08 13:21:57;;;;;;;0.10;0.10;;;4.00;58.00;;;;;;4995712;28;20557;-78
2024/01/08 13:24:22;;;;;;;0.10;0.10;;;4.00;57.50;;;;;;4981085;28;20019;-78
2024/01/08 13:26:49;;;;;;;0.20;0.20;;;4.00;58.00;;;;;;4977813;28;20037;-78
2024/01/08 13:29:15;;;;;;;0.10;0.10;;;4.10;58.20;;;;;;4992390;28;20398;-78
2024/01/08 13:31:40;;;;;;;0.20;0.20;;;4.00;57.70;;;;;;4984528;28;20058;-78
2024/01/08 13:34:07;;;;;;;0.20;0.20;;;4.10;58.00;;;;;;4981286;28;20069;-78
2024/01/08 13:36:37;;;;;;;0.10;0.10;;;4.20;58.60;;;;;;4995634;28;20038;-78
2024/01/08 13:39:10;;;;;;;0.10;0.10;;;4.20;58.40;;;;;;4996672;28;20033;-78
2024/01/08 13:41:37;;;;;;;;;;;4.20;58.40;;;;;;4990274;28;20058;-78
2024/01/08 13:44:04;;;;;;;0.10;0.10;;;4.20;58.70;;;;;;4992455;28;19910;-78
2024/01/08 13:46:30;;;;;;;0.20;0.20;;;4.20;57.70;;;;;;4977340;28;20019;-78
2024/01/08 13:48:55;;;;;;;0.20;0.20;;;4.10;57.00;;;;;;4976988;28;20026;-78
2024/01/08 13:51:21;;;;;;;0.20;0.20;;;4.10;56.60;;;;;;4991849;28;20118;-79
2024/01/08 13:53:47;;;;;;;0.10;0.10;;;4.10;57.00;;;;;;4992220;28;20076;-79
2024/01/08 13:56:13;;;;;;;0.20;0.20;;;4.00;56.70;;;;;;4977080;28;20050;-79
2024/01/08 13:58:38;;;;;;;0.10;0.10;;;4.00;56.50;;;;;;4977010;28;20034;-79
2024/01/08 14:01:05;;;;;;;0.10;0.10;;;3.90;56.70;;;;;;4994506;28;20698;-78
2024/01/08 14:03:30;;;;;;;0.10;0.10;;;4.00;56.90;;;;;;4994297;28;20030;-79
2024/01/08 14:05:56;;;;;;;0.10;0.10;;;4.00;56.90;;;;;;4994409;28;20018;-79
2024/01/08 14:08:22;;;;;;;0.10;0.10;;;3.90;56.30;;;;;;4986018;28;20041;-79
2024/01/08 14:10:48;;;;;;;0.20;0.20;;;3.90;56.90;;;;;;4996701;28;20026;-79
2024/01/08 14:13:13;;;;;;;0.10;0.10;;;3.90;57.00;;;;;;4996316;28;20026;-79
2024/01/08 14:15:39;;;;;;;0.10;0.10;;;4.00;57.50;;;;;;4985415;28;20097;-79
2024/01/08 14:18:05;;;;;;;0.10;0.10;;;3.90;56.40;;;;;;4975641;28;20034;-79
2024/01/08 14:20:30;;;;;;;0.10;0.10;;;3.80;56.70;;;;;;4977087;28;20042;-78
2024/01/08 14:22:56;;;;;;;0.20;0.20;;;3.90;56.80;;;;;;4977363;28;20078;-79
2024/01/08 14:25:22;;;;;;;0.10;0.10;;;3.90;55.60;;;;;;4976758;28;20104;-79
2024/01/08 14:27:48;;;;;;;0.20;0.20;;;3.80;55.00;;;;;;4993290;28;20037;-78
2024/01/08 14:30:15;;;;;;;0.20;0.20;;;3.80;55.40;;;;;;4995082;28;20026;-78
2024/01/08 14:32:41;;;;;;;0.10;0.10;;;3.60;54.80;;;;;;4996383;28;20117;-78
2024/01/08 14:35:09;;;;;;;0.10;0.10;;;3.50;55.90;;;;;;4989299;28;20034;-78
2024/01/08 14:37:35;;;;;;;0.10;0.10;;;3.70;56.40;;;;;;4993753;28;20041;-80
2024/01/08 14:40:01;;;;;;;0.20;0.20;;;3.70;55.70;;;;;;4994645;28;20026;-78
2024/01/08 14:42:26;;;;;;;0.20;0.20;;;3.70;55.20;;;;;;4994176;28;20110;-78
2024/01/08 14:44:52;;;;;;;0.10;0.10;;;3.50;54.80;;;;;;4994068;28;20706;-78
2024/01/08 14:47:21;;;;;;;0.10;0.10;;;3.60;55.10;;;;;;4991883;28;20058;-78
2024/01/08 14:49:49;;;;;;;0.13;0.13;;;3.60;55.20;;;;;;4989859;28;20023;-78
2024/01/08 14:52:17;;;;;;;0.10;0.10;;;3.60;55.60;;;;;;4993948;28;20480;-78
2024/01/08 14:54:42;;;;;;;0.10;0.10;;;3.70;55.70;;;;;;4994528;28;20450;-78
2024/01/08 14:57:08;;;;;;;0.10;0.10;;;3.70;56.10;;;;;;4990482;28;20060;-79
2024/01/08 14:59:35;;;;;;;0.20;0.20;;;3.70;56.40;;;;;;4995270;28;20228;-79
2024/01/08 15:02:02;;;;;;;0.20;0.20;;;3.70;56.90;;;;;;4994866;28;20065;-79
2024/01/08 15:04:28;;;;;;;0.20;0.20;;;3.60;56.00;;;;;;4993844;28;20026;-79
2024/01/08 15:06:56;;;;;;;0.20;0.20;;;3.50;55.70;;;;;;4993746;28;20030;-80
2024/01/08 15:09:22;;;;;;;0.10;0.10;;;3.60;56.70;;;;;;4994222;28;20070;-79
2024/01/08 15:11:47;;;;;;;0.20;0.20;;;3.50;57.00;;;;;;4995762;28;20022;-79
2024/01/08 15:14:13;;;;;;;0.20;0.20;;;3.60;57.60;;;;;;4995618;28;20050;-80
2024/01/08 15:16:39;;;;;;;0.20;0.20;;;3.50;57.90;;;;;;4993464;28;20027;-80
2024/01/08 15:19:04;;;;;;;0.20;0.20;;;3.50;58.20;;;;;;4999206;28;20094;-80
2024/01/08 15:21:30;;;;;;;0.10;0.10;;;3.40;58.10;;;;;;4997191;28;20026;-80
2024/01/08 15:23:56;;;;;;;0.13;0.13;;;3.30;58.60;;;;;;4999348;28;20030;-79
2024/01/08 15:26:21;;;;;;;0.20;0.20;;;3.20;59.00;;;;;;4997526;28;20022;-79
2024/01/08 15:28:47;;;;;;;0.20;0.20;;;3.20;59.40;;;;;;4999254;28;20022;-79
2024/01/08 15:31:19;;;;;;;0.20;0.20;;;3.20;60.30;;;;;;4996067;28;20042;-79
2024/01/08 15:33:49;;;;;;;0.17;0.17;;;3.20;60.30;;;;;;4994222;28;20842;-81
2024/01/08 15:36:15;;;;;;;0.10;0.10;;;3.20;60.20;;;;;;4998582;28;20034;-79
2024/01/08 15:38:41;;;;;;;0.10;0.10;;;3.10;60.30;;;;;;4989713;28;20018;-80
2024/01/08 15:41:07;;;;;;;0.20;0.20;;;3.10;60.20;;;;;;4998421;28;20116;-78
2024/01/08 15:43:33;;;;;;;0.10;0.10;;;3.00;61.20;;;;;;4996516;28;20114;-78
2024/01/08 15:46:05;;;;;;;0.10;0.10;;;3.00;60.80;;;;;;4981422;28;20027;-78
2024/01/08 15:48:34;;;;;;;0.20;0.20;;;3.00;60.80;;;;;;4996941;28;20441;-78
2024/01/08 15:51:00;;;;;;;0.20;0.20;;;3.00;61.20;;;;;;4995167;28;20033;-78
2024/01/08 15:53:26;;;;;;;0.10;0.10;;;2.90;61.10;;;;;;4997660;28;20538;-78
2024/01/08 15:55:52;;;;;;;0.10;0.10;;;2.70;61.70;;;;;;4996491;28;20026;-78
2024/01/08 15:58:18;;;;;;;0.20;0.20;;;2.70;63.10;;;;;;4995270;28;20035;-78
2024/01/08 16:00:43;;;;;;;0.20;0.20;;;2.70;63.00;;;;;;4997558;28;20402;-79
2024/01/08 16:03:09;;;;;;;0.20;0.20;;;2.70;63.20;;;;;;4997986;28;20034;-78
2024/01/08 16:05:35;;;;;;;0.10;0.10;;;2.70;62.70;;;;;;4994381;28;20386;-78
2024/01/08 16:08:02;;;;;;;0.10;0.10;;;2.70;63.30;;;;;;4986135;28;20022;-79
2024/01/08 16:10:29;;;;;;;0.20;0.20;;;2.80;62.50;;;;;;4995768;28;20018;-78
2024/01/08 16:12:57;;;;;;;0.20;0.20;;;2.70;62.50;;;;;;4994142;28;20034;-79
2024/01/08 16:15:23;;;;;;;0.10;0.10;;;2.60;62.90;;;;;;4993766;28;20031;-78
2024/01/08 16:17:49;;;;;;;0.10;0.10;;;2.70;63.40;;;;;;4995793;28;20030;-79
2024/01/08 16:20:15;;;;;;;0.10;0.10;;;2.70;63.50;;;;;;4995764;28;20478;-79
2024/01/08 16:22:41;;;;;;;0.10;0.10;;;2.60;63.30;;;;;;4996326;28;20038;-78
2024/01/08 16:25:08;;;;;;;0.10;0.10;;;2.50;62.90;;;;;;4997186;28;20014;-79
2024/01/08 16:27:34;;;;;;;0.10;0.10;;;2.50;62.70;;;;;;4992722;28;20026;-78
2024/01/08 16:29:59;;;;;;;0.15;0.15;;;2.50;63.20;;;;;;4997397;28;20022;-78
2024/01/08 16:32:25;;;;;;;0.20;0.20;;;2.50;63.20;;;;;;4988410;28;20058;-78
2024/01/08 16:34:51;;;;;;;0.10;0.10;;;2.50;62.70;;;;;;4992302;28;20035;-79
2024/01/08 16:37:17;;;;;;;0.10;0.10;;;2.40;62.60;;;;;;4989737;28;20077;-83
2024/01/08 16:39:43;;;;;;;0.10;0.10;;;2.40;63.00;;;;;;4995676;28;20109;-79
2024/01/08 16:42:08;;;;;;;0.15;0.15;;;2.20;62.50;;;;;;4982479;28;20038;-79
2024/01/08 16:44:34;;;;;;;0.13;0.13;;;2.30;62.80;;;;;;4994308;28;20023;-80
2024/01/08 16:47:00;;;;;;;0.20;0.20;;;2.20;62.90;;;;;;4994908;28;20022;-79
2024/01/08 16:49:26;;;;;;;0.20;0.20;;;2.20;62.90;;;;;;4995757;28;20102;-80
2024/01/08 16:51:51;;;;;;;0.20;0.20;;;2.10;62.20;;;;;;4991209;28;20557;-80
2024/01/08 16:54:17;;;;;;;0.10;0.10;;;2.00;61.80;;;;;;4995231;28;20069;-80
2024/01/08 16:56:42;;;;;;;0.20;0.20;;;2.00;62.00;;;;;;4993495;28;20034;-80
2024/01/08 16:59:08;;;;;;;0.13;0.13;;;2.00;62.40;;;;;;4993120;28;20026;-80
2024/01/08 17:01:34;;;;;;;0.10;0.10;;;1.90;62.20;;;;;;4991010;28;20034;-80
2024/01/08 17:04:00;;;;;;;0.20;0.20;;;1.90;62.50;;;;;;4993149;28;20015;-80
2024/01/08 17:06:26;;;;;;;0.10;0.10;;;1.90;62.80;;;;;;4993789;28;20410;-80
2024/01/08 17:08:53;;;;;;;0.20;0.20;;;1.80;64.00;;;;;;4995034;28;20482;-81
2024/01/08 17:11:18;;;;;;;0.10;0.10;;;1.90;64.30;;;;;;4993721;28;20019;-81
2024/01/08 17:13:44;;;;;;;0.10;0.10;;;1.90;64.30;;;;;;4994039;28;20029;-81
2024/01/08 17:16:10;;;;;;;0.10;0.10;;;1.80;64.50;;;;;;4995413;28;20030;-80
2024/01/08 17:18:35;;;;;;;0.20;0.20;;;1.70;63.80;;;;;;4993382;28;20032;-80
2024/01/08 17:21:01;;;;;;;0.20;0.20;;;1.80;64.10;;;;;;4992735;28;20030;-80
2024/01/08 17:23:27;;;;;;;0.10;0.10;;;1.80;64.00;;;;;;4995504;28;20026;-80
2024/01/08 17:25:52;;;;;;;0.20;0.20;;;1.90;63.60;;;;;;4995642;28;20026;-81
2024/01/08 17:28:18;;;;;;;0.20;0.20;;;2.00;63.70;;;;;;4993617;28;20021;-81
2024/01/08 17:30:43;;;;;;;0.10;0.10;;;1.80;63.40;;;;;;4990080;28;20061;-81
2024/01/08 17:33:10;;;;;;;0.10;0.10;;;1.70;63.60;;;;;;4988951;28;20030;-80
2024/01/08 17:35:36;;;;;;;0.20;0.20;;;1.70;63.50;;;;;;4992333;28;20101;-81
2024/01/08 17:38:02;;;;;;;0.10;0.10;;;1.70;63.80;;;;;;4993315;28;20129;-80
2024/01/08 17:40:29;;;;;;;0.10;0.10;;;1.70;63.80;;;;;;4995563;28;20061;-80
2024/01/08 17:42:54;;;;;;;0.20;0.20;;;1.70;63.60;;;;;;4993181;28;20019;-80
2024/01/08 17:45:20;;;;;;;0.13;0.13;;;1.70;63.00;;;;;;4991172;28;20040;-82
2024/01/08 17:47:46;;;;;;;0.20;0.20;;;1.80;63.50;;;;;;4994670;28;20061;-80
2024/01/08 17:50:13;;;;;;;0.17;0.17;;;1.80;63.50;;;;;;4995640;28;20482;-82
2024/01/08 17:52:38;;;;;;;0.20;0.20;;;1.70;63.00;;;;;;4995260;28;20567;-80
2024/01/08 17:55:05;;;;;;;0.10;0.10;;;1.80;63.30;;;;;;4993905;28;20117;-80
2024/01/08 17:57:31;;;;;;;0.20;0.20;;;1.70;63.40;;;;;;4991240;28;20026;-75
2024/01/08 17:59:57;;;;;;;0.20;0.20;;;1.50;63.60;;;;;;4991399;28;20038;-78
2024/01/08 18:02:22;;;;;;;0.20;0.20;;;1.60;64.10;;;;;;4993125;28;20034;-80
2024/01/08 18:04:49;;;;;;;0.20;0.20;;;1.70;64.30;;;;;;4991757;28;20034;-77
2024/01/08 18:07:15;;;;;;;0.20;0.20;;;1.70;63.90;;;;;;4991879;28;20023;-77
2024/01/08 18:09:40;;;;;;;0.20;0.20;;;1.70;64.20;;;;;;4993981;28;20034;-77
2024/01/08 18:12:06;;;;;;;0.20;0.20;;;1.60;64.10;;;;;;4993232;28;20030;-81
2024/01/08 18:14:32;;;;;;;0.10;0.10;;;1.60;63.90;;;;;;4994455;28;20022;-78
2024/01/08 18:16:58;;;;;;;0.10;0.10;;;1.50;63.40;;;;;;4985370;28;20038;-80
2024/01/08 18:19:24;;;;;;;0.20;0.20;;;1.50;64.20;;;;;;4995284;28;20085;-80
2024/01/08 18:21:49;;;;;;;0.10;0.10;;;1.30;63.80;;;;;;4992340;28;20086;-81
2024/01/08 18:24:15;;;;;;;0.20;0.20;;;1.30;63.70;;;;;;4994609;28;20029;-80